Time;durP1;ratioP1;P1;durP2;ratioP2;P2;SDS_P1;SDS_P2;PMS_P1;PMS_P2;Temp;Humidity;BMP_temperature;BMP_pressure;BME280_temperature;BME280_humidity;BME280_pressure;Samples;Min_cycle;Max_cycle;Signal;HPM_P1;HPM_P2
2022/02/04 00:25:04;;;;;;;3.80;3.50;;;7.20;99.90;;;;;;5105543;28;20386;-84
2022/02/04 00:27:30;;;;;;;3.80;3.50;;;7.20;99.90;;;;;;5110568;28;20222;-84
2022/02/04 00:30:04;;;;;;;4.40;4.00;;;7.10;99.90;;;;;;5102681;28;20244;-84
2022/02/04 00:32:33;;;;;;;5.43;3.80;;;7.10;99.90;;;;;;5086415;28;20240;-84
2022/02/04 00:35:12;;;;;;;5.63;3.90;;;7.00;99.90;;;;;;5112562;28;20353;-83
2022/02/04 00:38:26;;;;;;;4.40;3.83;;;7.10;99.90;;;;;;5088477;28;20233;-84
2022/02/04 00:40:30;;;;;;;4.67;4.27;;;7.00;99.90;;;;;;5102654;28;20209;-84
2022/02/04 00:43:00;;;;;;;6.33;4.27;;;7.00;99.90;;;;;;5104338;28;20221;-84
2022/02/04 00:45:45;;;;;;;4.43;4.03;;;7.00;99.90;;;;;;5091888;28;20209;-84
2022/02/04 00:50:55;;;;;;;4.43;4.00;;;7.10;99.90;;;;;;5116457;28;20179;-84
2022/02/04 00:53:34;;;;;;;5.70;4.13;;;7.00;99.90;;;;;;5076756;28;20195;-83
2022/02/04 00:56:28;;;;;;;3.90;3.60;;;7.00;99.90;;;;;;5094034;28;20190;-84
2022/02/04 01:26:09;;;;;;;4.90;4.47;;;7.10;99.90;;;;;;5106244;28;20271;-84
2022/02/04 01:28:37;;;;;;;5.00;4.50;;;7.00;99.90;;;;;;5089154;28;20743;-84
2022/02/04 01:31:05;;;;;;;6.80;5.27;;;7.00;99.90;;;;;;5112574;28;20198;-84
2022/02/04 01:33:31;;;;;;;4.87;4.47;;;7.00;99.90;;;;;;5099344;28;20178;-84
2022/02/04 01:35:57;;;;;;;6.83;4.60;;;6.90;99.90;;;;;;5114087;28;20190;-84
2022/02/04 01:38:25;;;;;;;4.90;4.50;;;7.00;99.90;;;;;;5110579;28;20219;-84
2022/02/04 01:40:52;;;;;;;5.30;4.57;;;6.90;99.90;;;;;;5109851;28;20211;-84
2022/02/04 01:43:21;;;;;;;5.40;4.90;;;6.90;99.90;;;;;;5112759;28;20192;-84
2022/02/04 01:46:01;;;;;;;5.60;5.10;;;6.90;99.90;;;;;;5109761;28;20206;-84
2022/02/04 01:48:27;;;;;;;5.83;5.03;;;6.90;99.90;;;;;;5120220;28;20202;-83
2022/02/04 01:50:52;;;;;;;7.40;5.43;;;6.80;99.90;;;;;;5091586;28;20313;-84
2022/02/04 01:53:20;;;;;;;6.60;5.73;;;7.00;99.90;;;;;;5104629;28;20702;-84
2022/02/04 01:55:48;;;;;;;6.10;5.50;;;6.90;99.90;;;;;;5110724;28;20280;-84
2022/02/04 01:58:14;;;;;;;5.73;5.13;;;6.90;99.90;;;;;;5111031;28;20216;-84
2022/02/04 02:00:40;;;;;;;5.73;5.23;;;6.90;99.90;;;;;;5124403;27;20177;-84
2022/02/04 02:03:08;;;;;;;6.30;5.70;;;6.90;99.90;;;;;;5118075;28;20226;-84
2022/02/04 02:05:34;;;;;;;6.93;4.93;;;7.00;99.90;;;;;;5110670;28;20234;-83
2022/02/04 02:08:12;;;;;;;7.33;6.50;;;7.00;99.90;;;;;;5105809;28;20206;-84
2022/02/04 02:10:39;;;;;;;7.13;6.37;;;7.00;99.90;;;;;;5112112;28;20186;-83
2022/02/04 02:15:55;;;;;;;6.90;6.00;;;7.00;99.90;;;;;;5111219;28;20194;-84
2022/02/04 02:53:48;;;;;;;8.17;7.23;;;6.90;99.90;;;;;;5105304;28;20248;-84
2022/02/04 02:59:11;;;;;;;7.40;6.50;;;6.80;99.90;;;;;;5106917;28;20202;-84
2022/02/04 03:01:33;;;;;;;7.90;7.10;;;6.90;99.90;;;;;;5093849;28;20226;-84
2022/02/04 03:04:04;;;;;;;7.30;6.60;;;6.80;99.90;;;;;;5112336;28;20191;-83
2022/02/04 03:06:30;;;;;;;9.00;6.53;;;6.80;99.90;;;;;;5116578;28;20214;-83
2022/02/04 03:08:56;;;;;;;8.20;7.37;;;6.80;99.90;;;;;;5117440;28;20210;-83
2022/02/04 03:11:22;;;;;;;7.67;6.87;;;6.80;99.90;;;;;;5114321;28;20190;-83
2022/02/04 03:13:48;;;;;;;7.00;6.30;;;6.80;99.90;;;;;;5119288;28;20188;-84
2022/02/04 03:16:17;;;;;;;6.53;5.90;;;6.80;99.90;;;;;;5119944;28;20243;-83
2022/02/04 03:18:47;;;;;;;7.60;6.80;;;6.80;99.90;;;;;;5115338;28;20206;-84
2022/02/04 03:21:38;;;;;;;7.33;6.63;;;6.80;99.90;;;;;;5098967;28;20194;-84
2022/02/04 03:24:04;;;;;;;6.60;6.00;;;6.70;99.90;;;;;;5104359;28;20205;-83
2022/02/04 03:26:53;;;;;;;8.57;6.83;;;6.70;99.90;;;;;;5110052;28;20229;-84
2022/02/04 03:29:29;;;;;;;6.93;6.23;;;6.80;99.90;;;;;;5087858;28;20202;-83
2022/02/04 03:32:02;;;;;;;7.00;6.30;;;6.70;99.90;;;;;;5067707;28;20171;-84
2022/02/04 03:34:28;;;;;;;7.30;6.60;;;6.80;99.90;;;;;;5074332;28;20270;-83
2022/02/04 03:36:53;;;;;;;8.00;6.63;;;6.70;99.90;;;;;;5066542;28;20233;-84
2022/02/04 03:39:19;;;;;;;7.47;6.67;;;6.70;99.90;;;;;;5086025;28;20253;-84
2022/02/04 03:41:45;;;;;;;7.50;6.60;;;6.70;99.90;;;;;;5090169;28;20186;-83
2022/02/04 03:44:11;;;;;;;7.40;6.63;;;6.80;99.90;;;;;;5077795;28;20191;-84
2022/02/04 03:46:36;;;;;;;7.10;6.40;;;6.70;99.90;;;;;;5084238;28;20224;-84
2022/02/04 03:49:02;;;;;;;7.27;6.57;;;6.80;99.90;;;;;;5085703;28;20222;-84
2022/02/04 03:51:28;;;;;;;7.77;6.97;;;6.80;99.90;;;;;;5088704;28;20194;-84
2022/02/04 03:53:54;;;;;;;6.57;5.97;;;6.80;99.90;;;;;;5088207;28;20188;-84
2022/02/04 03:56:20;;;;;;;6.17;5.57;;;6.70;99.90;;;;;;5068329;28;20203;-83
2022/02/04 03:58:45;;;;;;;6.83;6.23;;;6.70;99.90;;;;;;5092053;28;20210;-84
2022/02/04 04:01:11;;;;;;;7.20;6.13;;;6.60;99.90;;;;;;5089355;28;20191;-83
2022/02/04 04:03:37;;;;;;;7.17;5.67;;;6.50;99.90;;;;;;5072401;28;20179;-84
2022/02/04 04:06:04;;;;;;;6.47;5.87;;;6.60;99.90;;;;;;5081726;28;20203;-84
2022/02/04 04:08:30;;;;;;;7.77;6.50;;;6.60;99.90;;;;;;5066650;28;20199;-84
2022/02/04 04:10:56;;;;;;;6.30;5.70;;;6.70;99.90;;;;;;5068248;28;20206;-84
2022/02/04 04:13:22;;;;;;;7.33;6.57;;;6.70;99.90;;;;;;5095331;28;20168;-84
2022/02/04 04:15:47;;;;;;;6.73;6.13;;;6.50;99.90;;;;;;5086244;28;20190;-83
2022/02/04 04:18:14;;;;;;;6.60;5.90;;;6.50;99.90;;;;;;5094206;28;20214;-84
2022/02/04 04:20:41;;;;;;;6.10;5.50;;;6.60;99.90;;;;;;5094459;28;20919;-84
2022/02/04 04:23:07;;;;;;;6.20;5.60;;;6.60;99.90;;;;;;5088983;28;20205;-84
2022/02/04 04:25:32;;;;;;;5.97;5.40;;;6.60;99.90;;;;;;5083322;28;20211;-83
2022/02/04 04:27:58;;;;;;;6.00;5.50;;;6.70;99.90;;;;;;5069391;28;20223;-83
2022/02/04 04:30:25;;;;;;;6.10;5.57;;;6.60;99.90;;;;;;5088698;28;20221;-84
2022/02/04 04:32:53;;;;;;;5.57;5.07;;;6.70;99.90;;;;;;5094923;28;20302;-83
2022/02/04 04:35:23;;;;;;;7.50;5.87;;;6.50;99.90;;;;;;5095961;28;20194;-84
2022/02/04 04:37:55;;;;;;;6.70;5.93;;;6.40;99.90;;;;;;5092153;28;20210;-84
2022/02/04 04:40:35;;;;;;;6.17;5.57;;;6.40;99.90;;;;;;5096450;28;20204;-84
2022/02/04 04:43:21;;;;;;;6.43;5.83;;;6.40;99.90;;;;;;5093764;28;20202;-85
2022/02/04 05:29:13;;;;;;;7.20;6.50;;;6.20;99.90;;;;;;5100689;28;20191;-84
2022/02/04 05:31:39;;;;;;;7.23;6.53;;;6.20;99.90;;;;;;5098762;28;20261;-84
2022/02/04 05:34:05;;;;;;;7.80;7.10;;;6.10;99.90;;;;;;5119129;28;20182;-85
2022/02/04 05:36:34;;;;;;;7.60;6.90;;;6.10;99.90;;;;;;5101135;28;20278;-84
2022/02/04 05:39:00;;;;;;;8.07;6.90;;;6.20;99.90;;;;;;5111270;28;20211;-84
2022/02/04 05:41:31;;;;;;;8.13;6.60;;;6.10;99.90;;;;;;5114299;28;20213;-85
2022/02/04 05:44:01;;;;;;;8.20;7.27;;;6.00;99.90;;;;;;5109345;28;20175;-85
2022/02/04 05:46:31;;;;;;;7.53;6.83;;;6.00;99.90;;;;;;5115050;28;20210;-85
2022/02/04 05:48:58;;;;;;;7.80;7.00;;;6.00;99.90;;;;;;5114501;28;20234;-85
2022/02/04 05:56:38;;;;;;;6.70;6.03;;;6.10;99.90;;;;;;5115819;28;20214;-84
2022/02/04 06:01:55;;;;;;;7.13;6.43;;;6.10;99.90;;;;;;5113627;28;20186;-85
2022/02/04 06:05:13;;;;;;;7.07;6.47;;;6.00;99.90;;;;;;5092653;28;20190;-85
2022/02/04 06:23:20;;;;;;;8.10;6.43;;;5.90;99.90;;;;;;5094874;28;20201;-84
2022/02/04 06:25:46;;;;;;;6.93;5.80;;;6.00;99.90;;;;;;5109249;28;20489;-84
2022/02/04 06:28:15;;;;;;;7.20;6.30;;;5.90;99.90;;;;;;5088519;28;20218;-84
2022/02/04 06:30:42;;;;;;;6.43;5.83;;;5.90;99.90;;;;;;5114661;28;20211;-83
2022/02/04 06:33:08;;;;;;;7.30;6.70;;;5.90;99.90;;;;;;5109918;28;20205;-84
2022/02/04 06:35:37;;;;;;;8.37;6.27;;;5.80;99.90;;;;;;5122306;28;20173;-83
2022/02/04 06:38:03;;;;;;;7.40;6.70;;;5.90;99.90;;;;;;5118628;28;20194;-83
2022/02/04 06:40:29;;;;;;;7.40;6.37;;;5.90;99.90;;;;;;5092376;28;20258;-83
2022/02/04 06:42:55;;;;;;;7.03;6.43;;;6.00;99.90;;;;;;5123548;28;20191;-83
2022/02/04 06:45:24;;;;;;;6.83;5.97;;;6.10;99.90;;;;;;5095850;28;20218;-83
2022/02/04 06:47:50;;;;;;;7.50;6.70;;;6.10;99.90;;;;;;5106350;28;20230;-84
2022/02/04 06:50:16;;;;;;;7.80;6.30;;;6.10;99.90;;;;;;5107811;28;20186;-83
2022/02/04 06:52:45;;;;;;;7.20;6.50;;;6.10;99.90;;;;;;5115941;28;20191;-82
2022/02/04 06:55:12;;;;;;;7.83;7.00;;;6.10;99.90;;;;;;5114244;28;20242;-83
2022/02/04 06:57:44;;;;;;;8.20;7.40;;;6.00;99.90;;;;;;5116405;28;20295;-83
2022/02/04 07:00:11;;;;;;;8.03;7.23;;;5.90;99.90;;;;;;5105457;28;20210;-83
2022/02/04 07:02:37;;;;;;;10.43;7.70;;;5.90;99.90;;;;;;5106794;28;20195;-83
2022/02/04 07:05:09;;;;;;;9.17;8.27;;;5.90;99.90;;;;;;5084018;28;20218;-83
2022/02/04 07:07:37;;;;;;;10.27;8.13;;;5.70;99.90;;;;;;5117639;28;20198;-83
2022/02/04 07:10:14;;;;;;;8.73;7.93;;;5.70;99.90;;;;;;5108821;28;20183;-83
2022/02/04 07:12:50;;;;;;;10.13;9.13;;;5.70;99.90;;;;;;5111007;28;20182;-84
2022/02/04 07:19:45;;;;;;;8.87;7.70;;;5.60;99.90;;;;;;5105480;28;20283;-83
2022/02/04 07:20:49;;;;;;;10.23;8.30;;;5.60;99.90;;;;;;5118205;28;20201;-83
2022/02/04 07:23:14;;;;;;;10.67;8.83;;;5.60;99.90;;;;;;5107636;28;20210;-84
2022/02/04 07:25:40;;;;;;;9.23;8.33;;;5.60;99.90;;;;;;5110358;28;20277;-83
2022/02/04 07:28:06;;;;;;;9.23;8.07;;;5.60;99.90;;;;;;5106504;28;20685;-83
2022/02/04 07:30:32;;;;;;;9.63;8.30;;;5.60;99.90;;;;;;5104483;28;20182;-83
2022/02/04 07:40:57;;;;;;;12.13;8.40;;;5.60;99.90;;;;;;5112281;28;20699;-83
2022/02/04 07:43:24;;;;;;;9.17;8.13;;;5.70;99.90;;;;;;5090407;28;20202;-83
2022/02/04 07:45:51;;;;;;;9.00;8.07;;;5.70;99.90;;;;;;5114068;28;20327;-83
2022/02/04 07:48:17;;;;;;;9.30;8.37;;;5.70;99.90;;;;;;5114871;28;20274;-83
2022/02/04 07:50:45;;;;;;;8.20;7.40;;;5.70;99.90;;;;;;5118975;28;20166;-83
2022/02/04 07:53:11;;;;;;;10.40;8.30;;;5.70;99.90;;;;;;5105708;28;20201;-84
2022/02/04 07:55:37;;;;;;;8.53;7.63;;;5.90;99.90;;;;;;5116065;28;20298;-81
2022/02/04 07:58:03;;;;;;;9.03;7.37;;;5.80;99.90;;;;;;5114694;28;20676;-81
2022/02/04 08:00:29;;;;;;;9.37;7.90;;;5.90;99.90;;;;;;5093228;28;20337;-82
2022/02/04 08:02:55;;;;;;;8.70;7.40;;;5.90;99.90;;;;;;5107727;28;20182;-81
2022/02/04 08:05:26;;;;;;;8.50;7.60;;;5.90;99.90;;;;;;5111826;28;20271;-82
2022/02/04 08:08:12;;;;;;;8.50;7.70;;;6.00;99.90;;;;;;5092404;28;20274;-82
2022/02/04 08:16:18;;;;;;;12.10;9.70;;;5.90;99.90;;;;;;5108898;28;20300;-82
2022/02/04 08:22:04;;;;;;;11.43;10.23;;;6.00;99.90;;;;;;5103516;28;20697;-82
2022/02/04 08:37:49;;;;;;;11.17;9.80;;;6.30;99.90;;;;;;5102861;28;20219;-82
2022/02/04 08:51:39;;;;;;;11.77;8.83;;;6.60;99.90;;;;;;5111633;28;20186;-81
2022/02/04 08:59:22;;;;;;;8.87;7.97;;;6.70;99.90;;;;;;5115229;28;20167;-82
2022/02/04 09:01:55;;;;;;;9.13;8.23;;;6.60;99.90;;;;;;5124605;28;20174;-82
2022/02/04 09:04:30;;;;;;;9.20;8.30;;;6.70;99.90;;;;;;5109701;28;20290;-81
2022/02/04 09:07:02;;;;;;;8.93;8.07;;;6.60;99.90;;;;;;5117609;28;20202;-82
2022/02/04 09:09:43;;;;;;;9.20;8.30;;;6.50;99.90;;;;;;5114195;28;20183;-82
2022/02/04 09:20:21;;;;;;;7.83;7.03;;;6.60;99.90;;;;;;5116777;28;20294;-81
2022/02/04 09:22:48;;;;;;;7.60;6.90;;;6.70;99.90;;;;;;5107293;28;20190;-81
2022/02/04 09:25:14;;;;;;;9.47;7.50;;;6.60;99.90;;;;;;5109950;28;20206;-82
2022/02/04 09:27:40;;;;;;;7.97;7.00;;;6.70;99.90;;;;;;5104302;28;20271;-82
2022/02/04 09:30:10;;;;;;;8.47;7.53;;;6.70;99.90;;;;;;5107539;28;20187;-82
2022/02/04 09:32:39;;;;;;;8.23;7.27;;;6.80;99.90;;;;;;5105698;28;20546;-82
2022/02/04 09:35:07;;;;;;;8.07;6.40;;;6.80;99.90;;;;;;5102937;28;20191;-82
2022/02/04 09:37:34;;;;;;;7.60;6.83;;;6.90;99.90;;;;;;5099881;28;20199;-82
2022/02/04 09:40:00;;;;;;;6.67;6.07;;;7.00;99.90;;;;;;5103743;28;20195;-82
2022/02/04 09:42:27;;;;;;;5.80;5.10;;;7.00;99.90;;;;;;5094362;28;20721;-82
2022/02/04 09:44:53;;;;;;;7.27;5.87;;;7.10;99.90;;;;;;5107361;28;20187;-82
2022/02/04 09:47:23;;;;;;;6.23;5.53;;;7.20;99.90;;;;;;5104378;28;20268;-82
2022/02/04 09:49:55;;;;;;;6.30;5.63;;;7.30;99.90;;;;;;5108526;28;20239;-82
2022/02/04 10:22:28;;;;;;;5.00;4.03;;;8.10;99.90;;;;;;5103261;28;20210;-82
2022/02/04 10:25:08;;;;;;;4.63;4.13;;;7.90;99.90;;;;;;5107652;28;20199;-82
2022/02/04 10:27:35;;;;;;;4.27;3.57;;;8.00;99.90;;;;;;5108351;28;20210;-82
2022/02/04 10:30:10;;;;;;;3.47;3.17;;;8.30;99.90;;;;;;5104838;28;20659;-82
2022/02/04 10:32:37;;;;;;;2.50;2.30;;;8.40;99.90;;;;;;5105235;28;20311;-82
2022/02/04 10:35:20;;;;;;;2.87;1.90;;;8.50;99.10;;;;;;5107972;28;20191;-82
2022/02/04 10:38:21;;;;;;;3.20;1.90;;;8.40;96.30;;;;;;5107064;28;20202;-82
2022/02/04 10:41:05;;;;;;;1.93;1.77;;;8.50;96.50;;;;;;5106839;28;20190;-83
2022/02/04 11:52:34;;;;;;;2.10;1.90;;;8.30;92.80;;;;;;5101820;28;20186;-83
2022/02/04 11:55:21;;;;;;;2.40;1.70;;;8.70;91.20;;;;;;5099518;28;20202;-84
2022/02/04 11:57:59;;;;;;;1.97;1.80;;;8.80;91.50;;;;;;5103938;28;20202;-84
2022/02/04 12:00:41;;;;;;;2.23;2.00;;;9.10;91.90;;;;;;5105132;28;20317;-84
2022/02/04 12:03:35;;;;;;;2.23;2.03;;;8.90;94.30;;;;;;5101244;28;20221;-84
2022/02/04 12:06:01;;;;;;;2.03;1.93;;;8.70;92.70;;;;;;5105284;28;20592;-84
2022/02/04 12:08:30;;;;;;;2.30;2.10;;;8.40;94.60;;;;;;5105668;28;20219;-84
2022/02/04 12:10:59;;;;;;;3.10;1.93;;;8.40;95.10;;;;;;5100684;28;20193;-84
2022/02/04 12:13:25;;;;;;;2.30;2.10;;;8.30;97.60;;;;;;5101915;28;20264;-84
2022/02/04 12:16:04;;;;;;;4.97;2.70;;;8.60;98.50;;;;;;5086764;28;20190;-83
2022/02/04 12:18:54;;;;;;;2.43;2.23;;;9.20;95.60;;;;;;5107879;28;20213;-83
2022/02/04 12:21:20;;;;;;;2.60;2.20;;;9.00;95.80;;;;;;5101878;28;20210;-84
2022/02/04 12:23:50;;;;;;;1.90;1.80;;;8.70;98.60;;;;;;5081222;28;20191;-84
2022/02/04 12:26:17;;;;;;;2.20;2.00;;;8.70;96.60;;;;;;5104052;28;20225;-84
2022/02/04 12:29:05;;;;;;;2.73;2.37;;;8.70;95.70;;;;;;5103439;28;20262;-83
2022/02/04 12:31:32;;;;;;;1.90;1.60;;;8.50;95.60;;;;;;5111452;28;20194;-84
2022/02/04 12:34:17;;;;;;;6.60;1.70;;;8.50;95.80;;;;;;5101165;28;20190;-84
2022/02/04 12:36:43;;;;;;;1.63;1.53;;;8.60;93.50;;;;;;5107500;28;20261;-84
2022/02/04 12:39:18;;;;;;;1.67;1.40;;;8.70;94.70;;;;;;5109819;28;20590;-83
2022/02/04 12:41:46;;;;;;;1.20;1.10;;;8.70;91.50;;;;;;5104039;28;20185;-84
2022/02/04 12:44:21;;;;;;;0.97;0.97;;;8.80;90.30;;;;;;5105584;28;20220;-84
2022/02/04 12:46:50;;;;;;;0.90;0.90;;;8.80;89.70;;;;;;5108925;28;20214;-84
2022/02/04 12:49:18;;;;;;;1.30;1.20;;;8.80;90.00;;;;;;5104561;28;20190;-84
2022/02/04 12:54:24;;;;;;;1.00;1.00;;;8.60;89.40;;;;;;5108192;28;20183;-84
2022/02/04 13:10:09;;;;;;;1.13;0.80;;;8.40;86.00;;;;;;5107429;28;20240;-84
2022/02/04 13:12:58;;;;;;;1.10;1.10;;;8.40;86.90;;;;;;5108054;28;20650;-84
2022/02/04 13:15:27;;;;;;;0.80;0.80;;;8.40;86.70;;;;;;5109104;28;20201;-84
2022/02/04 13:17:53;;;;;;;1.07;1.07;;;8.40;87.30;;;;;;5112874;28;20690;-84
2022/02/04 13:20:22;;;;;;;0.90;0.90;;;8.30;88.70;;;;;;5106616;28;20259;-84
2022/02/04 13:23:03;;;;;;;0.80;0.80;;;8.30;87.70;;;;;;5115496;28;20199;-84
2022/02/04 13:25:34;;;;;;;1.00;1.00;;;8.30;86.90;;;;;;5101140;28;20459;-83
2022/02/04 13:28:03;;;;;;;1.80;1.07;;;8.20;86.80;;;;;;5120524;28;20325;-84
2022/02/04 13:30:31;;;;;;;2.87;1.00;;;8.20;88.20;;;;;;5116227;27;20178;-83
2022/02/04 13:32:58;;;;;;;0.90;0.90;;;8.20;87.00;;;;;;5092436;28;20210;-84
2022/02/04 13:35:27;;;;;;;1.30;1.30;;;8.20;86.80;;;;;;5112616;28;20705;-84
2022/02/04 13:37:57;;;;;;;1.23;0.90;;;8.20;87.40;;;;;;5107011;28;20294;-84
2022/02/04 13:40:40;;;;;;;1.10;1.00;;;8.20;86.10;;;;;;5111210;28;20285;-84
2022/02/04 13:43:32;;;;;;;1.03;0.90;;;8.30;86.60;;;;;;5107428;28;20217;-84
2022/02/04 13:46:08;;;;;;;0.90;0.90;;;8.20;88.50;;;;;;5118782;28;20234;-84
2022/02/04 13:48:51;;;;;;;0.90;0.90;;;8.20;87.20;;;;;;5096637;28;20869;-84
2022/02/04 13:51:38;;;;;;;1.77;1.00;;;8.30;84.70;;;;;;5110302;28;20786;-84
2022/02/04 13:54:20;;;;;;;3.40;1.40;;;8.30;86.50;;;;;;5109743;28;20195;-84
2022/02/04 13:56:53;;;;;;;1.00;1.00;;;8.30;85.10;;;;;;5118057;28;20190;-84
2022/02/04 13:59:39;;;;;;;0.93;0.93;;;8.30;85.10;;;;;;5123336;28;20227;-84
2022/02/04 14:02:10;;;;;;;1.00;1.00;;;8.20;85.30;;;;;;5107991;28;20288;-84
2022/02/04 14:04:35;;;;;;;1.00;1.00;;;8.20;86.20;;;;;;5107314;28;20193;-84
2022/02/04 14:07:09;;;;;;;1.30;1.20;;;8.20;87.70;;;;;;5106439;28;20316;-84
2022/02/04 14:09:46;;;;;;;3.80;1.37;;;8.30;87.80;;;;;;5103342;28;20187;-83
2022/02/04 14:12:18;;;;;;;0.90;0.90;;;8.30;86.90;;;;;;5109580;28;20595;-84
2022/02/04 14:14:44;;;;;;;1.53;1.30;;;8.30;87.60;;;;;;5107843;28;20675;-84
2022/02/04 14:17:10;;;;;;;2.17;1.30;;;8.20;88.80;;;;;;5108034;28;20215;-84
2022/02/04 14:19:35;;;;;;;1.40;1.30;;;8.20;88.80;;;;;;5087853;28;20206;-84
2022/02/04 14:22:02;;;;;;;1.33;1.23;;;8.20;88.70;;;;;;5105325;28;20819;-84
2022/02/04 14:24:28;;;;;;;2.17;1.27;;;8.20;89.00;;;;;;5102524;28;20183;-84
2022/02/04 14:26:55;;;;;;;1.10;1.10;;;8.10;90.00;;;;;;5121362;27;20213;-84
2022/02/04 15:01:15;;;;;;;1.70;1.17;;;8.30;86.90;;;;;;5101306;28;20195;-84
2022/02/04 15:03:53;;;;;;;1.63;1.53;;;8.40;86.90;;;;;;5105083;28;20218;-84
2022/02/04 15:06:27;;;;;;;1.80;1.70;;;8.40;87.30;;;;;;5107073;28;20225;-84
2022/02/04 15:08:55;;;;;;;1.40;1.30;;;8.40;86.70;;;;;;5103032;28;20198;-84
2022/02/04 15:11:25;;;;;;;2.03;1.83;;;8.40;87.20;;;;;;5104848;28;20183;-84
2022/02/04 15:13:50;;;;;;;2.40;1.53;;;8.50;88.10;;;;;;5087296;28;20605;-84
2022/02/04 15:16:16;;;;;;;3.27;1.23;;;8.30;89.60;;;;;;5104192;28;20269;-84
2022/02/04 15:18:43;;;;;;;1.70;1.60;;;8.30;88.20;;;;;;5113673;27;20546;-84
2022/02/04 15:21:15;;;;;;;1.53;1.43;;;8.30;90.10;;;;;;5089665;28;20198;-84
2022/02/04 15:23:45;;;;;;;1.80;1.70;;;8.30;88.90;;;;;;5108659;28;20278;-83
2022/02/04 15:26:12;;;;;;;1.90;1.70;;;8.40;88.60;;;;;;5107113;28;20548;-84
2022/02/04 15:33:53;;;;;;;2.63;1.60;;;8.40;89.40;;;;;;5089434;28;20187;-84
2022/02/04 15:36:29;;;;;;;2.00;1.50;;;8.30;89.50;;;;;;5108824;28;20254;-84
2022/02/04 15:38:58;;;;;;;1.90;1.70;;;8.30;89.80;;;;;;5104993;28;20214;-84
2022/02/04 15:41:26;;;;;;;1.50;1.40;;;8.30;89.20;;;;;;5113366;28;20186;-84
2022/02/04 15:43:56;;;;;;;1.50;1.40;;;8.20;89.90;;;;;;5104130;28;20179;-86
2022/02/04 16:04:31;;;;;;;1.67;1.20;;;8.30;88.70;;;;;;5107103;28;20205;-84
2022/02/04 16:06:57;;;;;;;3.17;1.70;;;8.20;89.30;;;;;;5079578;28;20218;-84
2022/02/04 16:09:24;;;;;;;1.47;1.37;;;8.20;88.40;;;;;;5105366;28;20267;-84
2022/02/04 16:14:36;;;;;;;1.60;1.50;;;8.20;88.40;;;;;;5106598;28;20246;-84
2022/02/04 16:19:41;;;;;;;2.33;1.50;;;8.20;88.20;;;;;;5115870;28;20195;-84
2022/02/04 16:25:11;;;;;;;1.67;1.40;;;8.20;86.40;;;;;;5104640;28;20222;-84
2022/02/04 16:30:06;;;;;;;1.90;1.27;;;8.20;87.00;;;;;;5102702;28;20248;-84
2022/02/04 16:32:32;;;;;;;2.93;1.30;;;8.30;86.20;;;;;;5098222;28;20187;-83
2022/02/04 16:35:02;;;;;;;1.80;1.23;;;8.20;86.50;;;;;;5103178;28;20617;-84
2022/02/04 16:40:02;;;;;;;1.27;1.17;;;8.00;91.90;;;;;;5103853;28;20191;-84
2022/02/04 16:42:28;;;;;;;2.40;1.30;;;8.10;91.60;;;;;;5104564;28;20219;-84
2022/02/04 16:44:55;;;;;;;1.83;1.20;;;8.00;90.90;;;;;;5083806;28;20190;-82
2022/02/04 16:47:21;;;;;;;1.40;1.30;;;8.10;91.30;;;;;;5103903;28;20221;-83
2022/02/04 16:49:47;;;;;;;1.43;1.40;;;8.00;91.40;;;;;;5083466;28;20187;-82
2022/02/04 16:52:12;;;;;;;1.27;1.20;;;8.00;93.60;;;;;;5085848;28;20197;-82
2022/02/04 16:54:38;;;;;;;1.40;1.30;;;8.00;95.10;;;;;;5104514;28;20194;-83
2022/02/04 16:57:05;;;;;;;1.50;1.40;;;7.90;97.80;;;;;;5103776;28;20231;-84
2022/02/04 16:59:32;;;;;;;1.10;1.10;;;7.70;99.90;;;;;;5103519;28;20242;-84
2022/02/04 17:01:58;;;;;;;1.33;1.23;;;7.70;99.70;;;;;;5107474;28;20526;-83
2022/02/04 17:04:24;;;;;;;2.60;1.40;;;7.80;99.90;;;;;;5110866;28;20196;-84
2022/02/04 17:06:58;;;;;;;1.40;1.30;;;7.70;99.90;;;;;;5087175;28;20277;-84
2022/02/04 17:09:30;;;;;;;1.50;1.40;;;7.60;99.90;;;;;;5102966;28;20186;-84
2022/02/04 17:12:11;;;;;;;1.50;1.40;;;7.70;99.90;;;;;;5109904;28;20195;-84
2022/02/04 17:14:37;;;;;;;1.70;1.60;;;7.70;99.90;;;;;;5105945;28;20198;-84
2022/02/04 17:17:05;;;;;;;1.57;1.47;;;7.60;99.90;;;;;;5102690;28;20199;-82
2022/02/04 17:19:39;;;;;;;1.50;1.40;;;7.60;99.90;;;;;;5105909;28;20190;-83
2022/02/04 17:22:07;;;;;;;1.50;1.40;;;7.70;99.90;;;;;;5105536;28;20226;-83
2022/02/04 17:24:32;;;;;;;1.83;1.50;;;7.70;99.90;;;;;;5108131;28;20198;-84
2022/02/04 17:26:59;;;;;;;1.73;1.63;;;7.70;99.90;;;;;;5102444;28;20215;-83
2022/02/04 17:29:28;;;;;;;1.90;1.60;;;7.70;99.90;;;;;;5084067;28;20196;-83
2022/02/04 17:31:54;;;;;;;1.50;1.40;;;7.60;99.90;;;;;;5085666;28;20183;-84
2022/02/04 17:34:20;;;;;;;1.53;1.43;;;7.70;99.90;;;;;;5109481;28;20281;-84
2022/02/04 17:36:46;;;;;;;2.83;2.23;;;7.60;99.90;;;;;;5087453;28;20229;-84
2022/02/04 17:39:22;;;;;;;1.50;1.40;;;7.60;99.90;;;;;;5109356;28;20495;-84
2022/02/04 17:41:52;;;;;;;1.97;1.77;;;7.70;99.90;;;;;;5106459;28;20197;-83
2022/02/04 17:44:19;;;;;;;2.57;1.47;;;7.60;99.90;;;;;;5110903;28;20616;-83
2022/02/04 17:46:46;;;;;;;1.43;1.33;;;7.50;99.90;;;;;;5104224;28;20207;-84
2022/02/04 17:50:18;;;;;;;1.53;1.43;;;7.50;99.90;;;;;;5106280;28;20191;-83
2022/02/04 17:52:19;;;;;;;1.80;1.70;;;7.40;99.90;;;;;;5092240;28;20638;-83
2022/02/04 17:55:08;;;;;;;2.10;1.47;;;7.60;99.90;;;;;;5118043;28;20193;-84
2022/02/04 17:57:40;;;;;;;1.67;1.50;;;7.70;99.90;;;;;;5115824;28;20227;-83
2022/02/04 18:08:08;;;;;;;2.63;1.80;;;7.60;99.90;;;;;;5105750;28;20226;-84
2022/02/04 18:10:34;;;;;;;2.70;1.70;;;7.70;99.90;;;;;;5110280;28;20215;-83
2022/02/04 18:13:00;;;;;;;1.80;1.70;;;7.70;99.90;;;;;;5109041;28;20224;-83
2022/02/04 18:15:26;;;;;;;1.50;1.40;;;7.70;99.90;;;;;;5109957;28;20198;-84
2022/02/04 18:17:52;;;;;;;2.87;1.67;;;7.70;99.90;;;;;;5112146;28;20198;-84
2022/02/04 18:20:18;;;;;;;2.97;1.87;;;7.80;99.90;;;;;;5116313;28;20576;-83
2022/02/04 18:22:46;;;;;;;1.83;1.67;;;7.70;99.90;;;;;;5112457;28;20589;-83
2022/02/04 18:25:12;;;;;;;2.10;1.90;;;7.70;99.90;;;;;;5104721;28;20195;-83
2022/02/04 18:27:39;;;;;;;1.80;1.70;;;7.70;99.90;;;;;;5105468;28;20219;-84
2022/02/04 18:30:06;;;;;;;1.90;1.70;;;7.80;99.90;;;;;;5109684;28;20239;-84
2022/02/04 18:32:34;;;;;;;2.03;1.83;;;7.80;99.90;;;;;;5100799;28;20602;-83
2022/02/04 18:35:02;;;;;;;2.27;1.63;;;7.80;99.90;;;;;;5105914;28;20221;-84
2022/02/04 18:37:36;;;;;;;2.87;1.70;;;7.70;99.90;;;;;;5109611;28;20209;-83
2022/02/04 18:45:24;;;;;;;2.10;1.80;;;7.70;99.90;;;;;;5106172;28;20233;-82
2022/02/04 18:48:02;;;;;;;1.77;1.67;;;7.80;99.90;;;;;;5105346;28;20209;-83
2022/02/04 18:58:06;;;;;;;2.20;1.70;;;7.80;99.90;;;;;;5108770;28;20205;-83
2022/02/04 19:00:32;;;;;;;1.63;1.47;;;7.80;99.90;;;;;;5100402;28;20190;-83
2022/02/04 19:03:01;;;;;;;1.53;1.40;;;7.80;99.90;;;;;;5108548;28;20186;-83
2022/02/04 19:05:32;;;;;;;2.73;1.50;;;7.90;99.90;;;;;;5084937;28;20210;-83
2022/02/04 19:08:10;;;;;;;1.80;1.70;;;7.80;99.90;;;;;;5106794;28;20207;-83
2022/02/04 19:10:38;;;;;;;2.27;1.70;;;7.80;99.90;;;;;;5090764;28;20186;-83
2022/02/04 19:13:36;;;;;;;1.70;1.60;;;7.90;99.90;;;;;;5114611;28;20239;-83
2022/02/04 19:18:44;;;;;;;2.17;1.70;;;7.80;99.90;;;;;;5107600;28;20288;-83
2022/02/04 19:21:14;;;;;;;2.10;1.50;;;7.80;99.90;;;;;;5097678;28;20397;-83
2022/02/04 19:23:47;;;;;;;2.67;1.40;;;7.90;99.90;;;;;;5104653;28;20198;-83
2022/02/04 19:26:17;;;;;;;1.57;1.40;;;7.90;99.90;;;;;;5101087;28;20240;-83
2022/02/04 19:28:43;;;;;;;1.57;1.47;;;7.90;99.90;;;;;;5102272;28;20209;-83
2022/02/04 19:31:09;;;;;;;1.70;1.60;;;7.80;99.90;;;;;;5096190;28;20206;-83
2022/02/04 19:33:36;;;;;;;1.50;1.40;;;7.80;99.90;;;;;;5102742;28;20198;-83
2022/02/04 19:36:02;;;;;;;1.40;1.30;;;7.80;99.90;;;;;;5108169;28;20281;-83
2022/02/04 19:38:28;;;;;;;1.87;1.60;;;7.90;99.90;;;;;;5099949;28;20211;-83
2022/02/04 19:40:55;;;;;;;1.90;1.70;;;7.90;99.90;;;;;;5088908;28;20192;-83
2022/02/04 19:43:23;;;;;;;2.37;1.40;;;8.00;99.90;;;;;;5105149;28;20647;-83
2022/02/04 19:46:04;;;;;;;1.30;1.20;;;8.00;99.90;;;;;;5099508;28;20283;-83
2022/02/04 19:48:34;;;;;;;1.63;1.30;;;8.00;99.90;;;;;;5106705;28;20222;-83
2022/02/04 20:25:39;;;;;;;1.60;1.50;;;7.80;99.90;;;;;;5099928;28;20732;-84
2022/02/04 20:28:10;;;;;;;1.50;1.40;;;7.70;99.90;;;;;;5099686;28;20214;-84
2022/02/04 20:30:39;;;;;;;2.17;1.73;;;7.60;99.90;;;;;;5098611;28;20328;-85
2022/02/04 20:33:05;;;;;;;1.43;1.33;;;7.60;99.90;;;;;;5106713;28;20182;-84
2022/02/04 20:35:31;;;;;;;1.53;1.43;;;7.60;99.90;;;;;;5104865;28;20205;-84
2022/02/04 20:37:56;;;;;;;1.70;1.60;;;7.60;99.90;;;;;;5079180;28;20214;-84
2022/02/04 20:40:29;;;;;;;2.23;2.03;;;7.60;99.90;;;;;;5112360;28;20183;-85
2022/02/04 20:42:55;;;;;;;1.67;1.57;;;7.60;99.90;;;;;;5102506;28;20198;-84
2022/02/04 20:45:20;;;;;;;1.90;1.80;;;7.60;99.90;;;;;;5077342;28;20198;-84
2022/02/04 20:47:51;;;;;;;2.13;1.93;;;7.60;99.90;;;;;;5117844;28;20202;-84
2022/02/04 20:50:18;;;;;;;1.80;1.70;;;7.60;99.90;;;;;;5089750;28;20210;-84
2022/02/04 20:52:43;;;;;;;1.57;1.47;;;7.50;99.90;;;;;;5115694;28;20254;-84
2022/02/04 20:55:10;;;;;;;1.90;1.80;;;7.50;99.90;;;;;;5106788;28;20256;-85